Time;durP1;ratioP1;P1;durP2;ratioP2;P2;SDS_P1;SDS_P2;PMS_P1;PMS_P2;Temp;Humidity;BMP_temperature;BMP_pressure;BME280_temperature;BME280_humidity;BME280_pressure;Samples;Min_cycle;Max_cycle;Signal;HPM_P1;HPM_P2
2024/01/25 00:00:35;;;;;;;11.97;4.40;;;7.00;99.90;;;;;;5087193;28;20203;-65
2024/01/25 00:03:03;;;;;;;21.60;7.57;;;7.00;99.90;;;;;;5086450;28;20198;-64
2024/01/25 00:05:32;;;;;;;11.17;4.83;;;6.90;99.90;;;;;;5085527;28;20208;-63
2024/01/25 00:08:01;;;;;;;17.67;4.87;;;7.00;99.90;;;;;;5086148;28;20244;-65
2024/01/25 00:10:29;;;;;;;15.33;5.57;;;7.00;99.90;;;;;;5086979;28;20197;-64
2024/01/25 00:12:57;;;;;;;11.50;4.27;;;7.00;99.90;;;;;;5087391;28;20228;-66
2024/01/25 00:15:25;;;;;;;14.47;4.97;;;7.00;99.90;;;;;;5088534;28;20214;-62
2024/01/25 00:17:56;;;;;;;17.57;5.50;;;7.00;99.90;;;;;;5090266;28;20207;-65
2024/01/25 00:20:25;;;;;;;16.13;4.53;;;7.00;99.90;;;;;;5089902;28;20258;-66
2024/01/25 00:22:53;;;;;;;15.80;4.60;;;7.00;99.90;;;;;;5090095;28;20299;-65
2024/01/25 00:25:21;;;;;;;20.13;5.00;;;7.00;99.90;;;;;;5090153;28;20297;-64
2024/01/25 00:27:50;;;;;;;22.57;5.27;;;6.90;99.90;;;;;;5090351;28;20193;-65
2024/01/25 00:30:18;;;;;;;22.13;5.10;;;6.90;99.90;;;;;;5089909;28;20253;-63
2024/01/25 00:32:47;;;;;;;18.83;4.57;;;6.80;99.90;;;;;;5090177;28;20189;-62
2024/01/25 00:35:17;;;;;;;15.57;4.67;;;6.80;99.90;;;;;;5089537;28;20275;-65
2024/01/25 00:37:46;;;;;;;20.97;6.13;;;6.80;99.90;;;;;;5089715;28;20225;-66
2024/01/25 00:40:15;;;;;;;17.20;4.50;;;6.80;99.90;;;;;;5089414;28;20251;-63
2024/01/25 00:42:45;;;;;;;18.03;5.47;;;6.80;99.90;;;;;;5089974;28;20192;-64
2024/01/25 00:45:15;;;;;;;17.30;4.50;;;6.80;99.90;;;;;;5089783;28;20288;-63
2024/01/25 00:47:43;;;;;;;16.87;5.20;;;6.80;99.90;;;;;;5089642;28;20540;-67
2024/01/25 00:50:13;;;;;;;14.57;4.47;;;6.80;99.90;;;;;;5089365;28;20284;-64
2024/01/25 00:52:43;;;;;;;18.03;5.03;;;6.70;99.90;;;;;;5088801;28;20197;-64
2024/01/25 00:55:13;;;;;;;22.93;6.80;;;6.90;99.90;;;;;;5088105;28;20598;-61
2024/01/25 00:57:42;;;;;;;22.60;5.10;;;6.80;99.90;;;;;;5089175;28;20203;-66
2024/01/25 01:00:12;;;;;;;17.57;4.40;;;6.80;99.90;;;;;;5089606;28;20546;-65
2024/01/25 01:02:43;;;;;;;18.80;5.27;;;6.80;99.90;;;;;;5089343;28;20189;-66
2024/01/25 01:05:12;;;;;;;23.07;5.87;;;6.70;99.90;;;;;;5070977;28;20569;-65
2024/01/25 01:07:43;;;;;;;16.13;4.63;;;6.90;99.90;;;;;;5089025;28;20224;-62
2024/01/25 01:10:13;;;;;;;13.33;4.90;;;6.80;99.90;;;;;;5089322;28;20237;-63
2024/01/25 01:12:42;;;;;;;27.13;5.70;;;6.80;99.90;;;;;;5088374;28;20197;-63
2024/01/25 01:15:10;;;;;;;22.67;6.30;;;6.90;99.90;;;;;;5087813;28;20335;-66
2024/01/25 01:17:39;;;;;;;22.67;5.27;;;6.90;99.90;;;;;;5089259;28;20241;-62
2024/01/25 01:20:08;;;;;;;18.93;5.93;;;6.90;99.90;;;;;;5089083;28;20196;-65
2024/01/25 01:22:36;;;;;;;26.83;5.83;;;6.80;99.90;;;;;;5089403;28;20186;-63
2024/01/25 01:25:07;;;;;;;28.80;6.73;;;6.90;99.90;;;;;;5089211;28;20271;-62
2024/01/25 01:27:35;;;;;;;23.07;5.57;;;6.90;99.90;;;;;;5089401;28;20215;-64
2024/01/25 01:30:04;;;;;;;20.97;5.80;;;7.00;99.90;;;;;;5070577;28;20212;-63
2024/01/25 01:32:33;;;;;;;27.03;6.30;;;6.90;99.90;;;;;;5089076;28;20223;-65
2024/01/25 01:35:01;;;;;;;25.13;5.77;;;6.90;99.90;;;;;;5088895;28;20335;-64
2024/01/25 01:37:30;;;;;;;25.70;6.57;;;6.90;99.90;;;;;;5088789;28;20310;-63
2024/01/25 01:39:59;;;;;;;27.47;6.33;;;6.90;99.90;;;;;;5088852;28;20302;-64
2024/01/25 01:42:29;;;;;;;30.97;6.30;;;7.00;99.90;;;;;;5088519;28;20194;-65
2024/01/25 01:44:58;;;;;;;23.30;5.87;;;6.90;99.90;;;;;;5088374;28;20200;-63
2024/01/25 01:47:26;;;;;;;23.90;5.40;;;6.90;99.90;;;;;;5088522;28;20185;-66
2024/01/25 01:49:55;;;;;;;22.97;6.47;;;7.00;99.90;;;;;;5088390;28;20203;-67
2024/01/25 01:52:23;;;;;;;24.70;6.60;;;7.00;99.90;;;;;;5088367;28;20989;-65
2024/01/25 01:54:52;;;;;;;29.27;6.43;;;7.00;99.90;;;;;;5088496;28;20217;-65
2024/01/25 01:57:21;;;;;;;25.47;6.10;;;7.00;99.90;;;;;;5088533;28;20268;-62
2024/01/25 01:59:51;;;;;;;18.97;5.93;;;6.90;99.90;;;;;;5088289;28;20767;-66
2024/01/25 02:02:19;;;;;;;28.40;7.73;;;6.90;99.90;;;;;;5088338;28;20353;-64
2024/01/25 02:04:48;;;;;;;19.83;6.17;;;6.90;99.90;;;;;;5088163;28;20667;-65
2024/01/25 02:07:16;;;;;;;21.57;6.20;;;6.80;99.90;;;;;;5088279;28;20224;-60
2024/01/25 02:09:45;;;;;;;19.90;5.70;;;6.90;99.90;;;;;;5088427;28;20201;-64
2024/01/25 02:12:17;;;;;;;22.40;5.67;;;6.80;99.90;;;;;;5088439;28;20208;-63
2024/01/25 02:14:46;;;;;;;20.33;5.17;;;6.90;99.90;;;;;;5088069;28;20655;-66
2024/01/25 02:17:16;;;;;;;18.13;4.87;;;6.90;99.90;;;;;;5088513;28;20202;-66
2024/01/25 02:19:44;;;;;;;28.43;5.60;;;6.90;99.90;;;;;;5088058;28;20228;-66
2024/01/25 02:22:17;;;;;;;20.20;5.80;;;6.80;99.90;;;;;;5088728;28;20189;-66
2024/01/25 02:24:47;;;;;;;21.17;4.87;;;6.80;99.90;;;;;;5088373;28;20192;-62
2024/01/25 02:27:16;;;;;;;23.67;5.73;;;6.80;99.90;;;;;;5087791;28;20212;-65
2024/01/25 02:29:44;;;;;;;24.77;5.47;;;6.70;99.90;;;;;;5086868;28;20217;-65
2024/01/25 02:32:12;;;;;;;23.30;5.97;;;6.70;99.90;;;;;;5087810;28;20211;-63
2024/01/25 02:34:40;;;;;;;18.83;5.17;;;6.70;99.90;;;;;;5088499;28;20192;-62
2024/01/25 02:37:11;;;;;;;12.10;4.60;;;6.70;99.90;;;;;;5088876;28;20249;-62
2024/01/25 02:39:39;;;;;;;21.20;5.33;;;6.80;99.90;;;;;;5089024;28;20208;-63
2024/01/25 02:42:09;;;;;;;24.33;5.80;;;6.70;99.90;;;;;;5089210;28;20193;-59
2024/01/25 02:44:37;;;;;;;23.37;5.60;;;6.80;99.90;;;;;;5089309;28;20245;-65
2024/01/25 02:47:06;;;;;;;30.83;6.47;;;6.80;99.90;;;;;;5089147;28;20201;-63
2024/01/25 02:49:34;;;;;;;20.87;5.50;;;6.80;99.90;;;;;;5088714;28;20663;-62
2024/01/25 02:52:03;;;;;;;21.53;4.93;;;6.80;99.90;;;;;;5088943;28;20229;-60
2024/01/25 02:54:36;;;;;;;22.17;4.97;;;6.80;99.90;;;;;;5088786;28;20192;-64
2024/01/25 02:57:05;;;;;;;23.20;6.50;;;6.80;99.90;;;;;;5088693;28;20216;-64
2024/01/25 02:59:34;;;;;;;23.60;5.90;;;6.70;99.90;;;;;;5088817;28;20245;-63
2024/01/25 03:02:02;;;;;;;20.27;5.20;;;6.70;99.90;;;;;;5088966;28;20200;-62
2024/01/25 03:04:31;;;;;;;15.93;4.43;;;6.70;99.90;;;;;;5088554;28;20196;-63
2024/01/25 03:06:59;;;;;;;18.43;5.33;;;6.70;99.90;;;;;;5088574;28;20198;-63
2024/01/25 03:09:28;;;;;;;21.43;5.53;;;6.70;99.90;;;;;;5088925;28;20690;-62
2024/01/25 03:11:56;;;;;;;18.57;4.47;;;6.70;99.90;;;;;;5088965;28;20196;-64
2024/01/25 03:14:24;;;;;;;23.97;5.23;;;6.70;99.90;;;;;;5088787;28;20200;-62
2024/01/25 03:16:54;;;;;;;20.47;5.27;;;6.70;99.90;;;;;;5088830;28;20220;-64
2024/01/25 03:19:25;;;;;;;13.87;4.87;;;6.70;99.90;;;;;;5070380;28;20254;-62
2024/01/25 03:21:55;;;;;;;18.50;5.23;;;6.70;99.90;;;;;;5088650;28;20208;-64
2024/01/25 03:24:24;;;;;;;21.30;4.93;;;6.60;99.90;;;;;;5088735;28;20270;-66
2024/01/25 03:26:52;;;;;;;13.87;4.13;;;6.60;99.90;;;;;;5088701;28;20197;-64
2024/01/25 03:29:20;;;;;;;15.37;3.87;;;6.60;99.90;;;;;;5088618;28;20315;-64
2024/01/25 03:31:49;;;;;;;14.17;4.30;;;6.60;99.90;;;;;;5088605;28;20227;-64
2024/01/25 03:34:19;;;;;;;13.67;4.90;;;6.50;99.90;;;;;;5088271;28;20271;-61
2024/01/25 03:36:48;;;;;;;18.37;5.20;;;6.60;99.90;;;;;;5088237;28;20224;-63
2024/01/25 03:39:17;;;;;;;15.63;4.33;;;6.70;99.90;;;;;;5088320;28;20192;-65
2024/01/25 03:41:45;;;;;;;13.87;4.23;;;6.70;99.90;;;;;;5088272;28;20201;-64
2024/01/25 03:44:13;;;;;;;18.90;5.13;;;6.60;99.90;;;;;;5088313;28;20193;-63
2024/01/25 03:46:42;;;;;;;15.20;4.17;;;6.60;99.90;;;;;;5088315;28;20220;-65
2024/01/25 03:49:10;;;;;;;15.87;5.10;;;6.60;99.90;;;;;;5088405;28;20693;-64
2024/01/25 03:51:40;;;;;;;22.03;5.10;;;6.60;99.90;;;;;;5091965;28;20640;-67
2024/01/25 03:54:08;;;;;;;15.77;5.33;;;6.60;99.90;;;;;;5092236;28;20304;-66
2024/01/25 03:56:36;;;;;;;19.43;5.30;;;6.70;99.90;;;;;;5092058;28;20650;-59
2024/01/25 03:59:10;;;;;;;21.33;5.30;;;6.70;99.90;;;;;;5092100;28;20716;-65
2024/01/25 04:01:43;;;;;;;25.90;6.10;;;6.80;99.90;;;;;;5092219;28;20253;-64
2024/01/25 04:04:12;;;;;;;27.17;5.43;;;6.60;99.90;;;;;;5092043;28;20578;-63
2024/01/25 04:06:45;;;;;;;29.17;5.77;;;6.70;99.90;;;;;;5091730;28;20580;-59
2024/01/25 04:09:15;;;;;;;22.27;5.27;;;6.60;99.90;;;;;;5092036;28;20192;-60
2024/01/25 04:11:43;;;;;;;16.50;4.83;;;6.60;99.90;;;;;;5091718;28;20605;-63
2024/01/25 04:14:11;;;;;;;18.07;4.90;;;6.60;99.90;;;;;;5091641;28;20197;-60
2024/01/25 04:16:40;;;;;;;18.63;5.00;;;6.80;99.90;;;;;;5091513;28;20228;-65
2024/01/25 04:19:12;;;;;;;15.33;4.27;;;6.70;99.90;;;;;;5091775;28;20654;-62
2024/01/25 04:21:40;;;;;;;14.07;4.77;;;6.70;99.90;;;;;;5091632;28;20235;-60
2024/01/25 04:24:10;;;;;;;13.57;3.37;;;6.70;99.90;;;;;;5091762;28;20186;-63
2024/01/25 04:26:38;;;;;;;13.73;4.00;;;6.70;99.90;;;;;;5091708;28;20228;-63
2024/01/25 04:29:07;;;;;;;14.77;4.00;;;6.80;99.90;;;;;;5091529;28;20205;-62
2024/01/25 04:31:35;;;;;;;7.97;3.03;;;6.70;99.90;;;;;;5091618;28;20204;-62
2024/01/25 04:34:03;;;;;;;10.83;3.77;;;6.80;99.90;;;;;;5091437;28;20291;-66
2024/01/25 04:36:32;;;;;;;9.27;3.67;;;6.80;99.90;;;;;;5091076;28;20736;-62
2024/01/25 04:39:00;;;;;;;10.37;4.07;;;6.80;99.90;;;;;;5091289;28;20200;-64
2024/01/25 04:41:30;;;;;;;11.87;4.10;;;6.80;99.90;;;;;;5091349;28;20200;-61
2024/01/25 04:43:58;;;;;;;12.50;4.47;;;6.80;99.90;;;;;;5091363;28;20188;-61
2024/01/25 04:46:26;;;;;;;11.97;3.63;;;6.80;99.90;;;;;;5091328;28;20208;-60
2024/01/25 04:48:55;;;;;;;15.43;3.97;;;6.70;99.90;;;;;;5091505;28;20273;-63
2024/01/25 04:51:23;;;;;;;12.73;4.43;;;6.70;99.90;;;;;;5091225;28;20201;-61
2024/01/25 04:53:51;;;;;;;11.83;4.73;;;6.70;99.90;;;;;;5091261;28;20225;-62
2024/01/25 04:56:20;;;;;;;13.03;4.17;;;6.70;99.90;;;;;;5091072;28;20213;-62
2024/01/25 04:58:49;;;;;;;11.73;4.23;;;6.70;99.90;;;;;;5091202;28;20223;-61
2024/01/25 05:01:18;;;;;;;11.07;3.90;;;6.70;99.90;;;;;;5090705;28;20235;-65
2024/01/25 05:03:46;;;;;;;11.47;3.90;;;6.60;99.90;;;;;;5091047;28;20196;-65
2024/01/25 05:06:14;;;;;;;12.43;3.87;;;6.60;99.90;;;;;;5090647;28;20196;-64
2024/01/25 05:08:43;;;;;;;10.97;3.07;;;6.70;99.90;;;;;;5090551;28;20231;-64
2024/01/25 05:11:12;;;;;;;10.73;3.30;;;6.70;99.90;;;;;;5090771;28;20716;-64
2024/01/25 05:13:40;;;;;;;17.67;3.97;;;6.70;99.90;;;;;;5091058;28;20249;-66
2024/01/25 05:16:10;;;;;;;10.80;3.50;;;6.70;99.90;;;;;;5090567;28;20204;-64
2024/01/25 05:18:38;;;;;;;5.80;2.97;;;6.80;99.90;;;;;;5090754;28;20260;-63
2024/01/25 05:21:07;;;;;;;12.03;3.13;;;6.80;99.90;;;;;;5090477;28;20265;-69
2024/01/25 05:23:35;;;;;;;6.77;2.80;;;6.80;99.90;;;;;;5090253;28;20200;-61
2024/01/25 05:26:04;;;;;;;10.60;3.53;;;6.70;99.90;;;;;;5090347;28;20193;-63
2024/01/25 05:28:32;;;;;;;10.83;3.20;;;6.70;99.90;;;;;;5090395;28;20219;-63
2024/01/25 05:31:00;;;;;;;9.93;3.67;;;6.70;99.90;;;;;;5090501;28;20196;-63
2024/01/25 05:33:32;;;;;;;13.57;4.30;;;6.70;99.90;;;;;;5090348;28;20201;-58
2024/01/25 05:36:00;;;;;;;13.63;3.47;;;6.70;99.90;;;;;;5089987;28;20226;-60
2024/01/25 05:38:28;;;;;;;8.00;3.67;;;6.80;99.90;;;;;;5089854;28;20235;-62
2024/01/25 05:40:57;;;;;;;11.90;4.10;;;6.80;99.90;;;;;;5090031;28;20205;-64
2024/01/25 05:43:25;;;;;;;12.33;4.13;;;6.80;99.90;;;;;;5090201;28;20302;-65
2024/01/25 05:45:53;;;;;;;9.93;4.13;;;6.70;99.90;;;;;;5089973;28;20194;-63
2024/01/25 05:48:21;;;;;;;15.33;4.83;;;6.80;99.90;;;;;;5089777;28;20570;-61
2024/01/25 05:50:51;;;;;;;12.10;3.73;;;6.70;99.90;;;;;;5089737;28;20192;-62
2024/01/25 05:53:21;;;;;;;14.17;4.20;;;6.70;99.90;;;;;;5089837;28;20194;-65
2024/01/25 05:55:49;;;;;;;20.40;4.10;;;6.70;99.90;;;;;;5089730;28;20189;-63
2024/01/25 05:58:18;;;;;;;18.00;5.20;;;6.70;99.90;;;;;;5089656;28;20220;-60
2024/01/25 06:00:46;;;;;;;13.93;4.53;;;6.70;99.90;;;;;;5089642;28;20638;-60
2024/01/25 06:03:14;;;;;;;17.90;5.47;;;6.70;99.90;;;;;;5089551;28;20203;-64
2024/01/25 06:05:43;;;;;;;11.83;4.33;;;6.60;99.90;;;;;;5089487;28;20221;-60
2024/01/25 06:08:13;;;;;;;15.27;4.80;;;6.70;99.90;;;;;;5089257;28;20239;-65
2024/01/25 06:10:41;;;;;;;22.03;5.03;;;6.70;99.90;;;;;;5089630;28;20212;-60
2024/01/25 06:13:09;;;;;;;19.43;4.47;;;6.60;99.90;;;;;;5088975;28;20197;-62
2024/01/25 06:15:38;;;;;;;14.43;4.30;;;6.60;99.90;;;;;;5089344;28;20194;-63
2024/01/25 06:18:07;;;;;;;15.80;4.43;;;6.60;99.90;;;;;;5089033;28;20698;-64
2024/01/25 06:20:35;;;;;;;15.23;4.27;;;6.60;99.90;;;;;;5089099;28;20207;-61
2024/01/25 06:23:04;;;;;;;10.20;3.87;;;6.60;99.90;;;;;;5089068;28;20228;-64
2024/01/25 06:25:35;;;;;;;13.27;4.13;;;6.60;99.90;;;;;;5089083;28;20198;-65
2024/01/25 06:28:03;;;;;;;9.80;4.07;;;6.60;99.90;;;;;;5089055;28;20642;-59
2024/01/25 06:30:32;;;;;;;13.47;4.23;;;6.70;99.90;;;;;;5089468;28;20282;-66
2024/01/25 06:33:00;;;;;;;8.17;3.03;;;6.70;99.90;;;;;;5088936;28;20198;-60
2024/01/25 06:35:28;;;;;;;11.10;4.43;;;6.60;99.90;;;;;;5088755;28;20279;-59
2024/01/25 06:37:57;;;;;;;16.20;5.60;;;6.50;99.90;;;;;;5088613;28;20223;-63
2024/01/25 06:40:25;;;;;;;14.43;6.27;;;6.50;99.90;;;;;;5088792;28;20197;-65
2024/01/25 06:42:55;;;;;;;12.43;6.30;;;6.50;99.90;;;;;;5088828;28;20201;-63
2024/01/25 06:45:23;;;;;;;11.20;5.20;;;6.50;99.90;;;;;;5088715;28;20200;-61
2024/01/25 06:47:51;;;;;;;4.77;3.53;;;6.60;99.90;;;;;;5088966;28;20225;-63
2024/01/25 06:50:20;;;;;;;3.77;2.63;;;6.50;99.90;;;;;;5088310;28;20719;-64
2024/01/25 06:52:48;;;;;;;2.23;2.10;;;6.30;99.90;;;;;;5088738;28;20196;-61
2024/01/25 06:55:17;;;;;;;3.17;2.60;;;6.10;99.90;;;;;;5088501;28;20204;-67
2024/01/25 06:57:45;;;;;;;4.27;3.87;;;6.00;99.90;;;;;;5088662;28;20297;-63
2024/01/25 07:00:18;;;;;;;5.47;3.90;;;6.00;99.90;;;;;;5088381;28;20266;-60
2024/01/25 07:02:46;;;;;;;3.53;2.57;;;6.00;99.90;;;;;;5088502;28;20250;-65
2024/01/25 07:05:15;;;;;;;4.80;4.10;;;5.90;99.90;;;;;;5088459;28;20220;-64
2024/01/25 07:07:44;;;;;;;5.97;3.50;;;5.90;99.90;;;;;;5088164;28;20228;-67
2024/01/25 07:10:12;;;;;;;3.97;3.10;;;5.90;99.90;;;;;;5088535;28;20200;-67
2024/01/25 07:12:40;;;;;;;2.77;2.40;;;5.80;99.90;;;;;;5088418;28;20562;-64
2024/01/25 07:15:09;;;;;;;3.30;2.90;;;5.80;99.90;;;;;;5088537;28;20300;-66
2024/01/25 07:17:39;;;;;;;2.83;2.63;;;5.80;99.90;;;;;;5088469;28;20741;-60
2024/01/25 07:20:08;;;;;;;3.97;3.07;;;5.80;99.90;;;;;;5088564;28;20197;-65
2024/01/25 07:22:36;;;;;;;4.33;3.77;;;5.80;99.90;;;;;;5088151;28;20717;-62
2024/01/25 07:25:06;;;;;;;3.57;2.67;;;6.00;99.90;;;;;;5091244;28;20204;-62
2024/01/25 07:27:34;;;;;;;3.43;2.90;;;5.90;99.90;;;;;;5092415;28;20196;-67
2024/01/25 07:30:03;;;;;;;5.03;3.10;;;6.00;99.90;;;;;;5092369;28;20201;-66
2024/01/25 07:32:32;;;;;;;2.23;2.13;;;6.00;99.90;;;;;;5092563;28;20201;-64
2024/01/25 07:35:02;;;;;;;2.47;2.27;;;5.60;99.90;;;;;;5092373;28;20216;-65
2024/01/25 07:37:30;;;;;;;3.97;3.10;;;5.50;99.90;;;;;;5092110;28;20724;-62
2024/01/25 07:39:59;;;;;;;5.60;4.70;;;5.70;99.90;;;;;;5092239;28;20193;-66
2024/01/25 07:42:27;;;;;;;2.97;2.73;;;5.70;99.90;;;;;;5092313;28;20278;-63
2024/01/25 07:44:55;;;;;;;3.17;2.90;;;5.60;99.90;;;;;;5092128;28;20295;-65
2024/01/25 07:47:24;;;;;;;3.03;2.77;;;5.40;99.90;;;;;;5092186;28;20460;-68
2024/01/25 07:49:52;;;;;;;3.23;3.00;;;5.60;99.90;;;;;;5092191;28;20231;-62
2024/01/25 07:52:22;;;;;;;4.87;3.83;;;5.50;99.90;;;;;;5091989;28;20289;-67
2024/01/25 07:54:53;;;;;;;6.77;3.27;;;5.30;99.90;;;;;;5092013;28;20192;-66
2024/01/25 07:57:21;;;;;;;7.17;3.97;;;5.10;99.90;;;;;;5091960;28;20230;-66
2024/01/25 07:59:50;;;;;;;8.77;4.63;;;5.20;99.90;;;;;;5091969;28;20277;-65
2024/01/25 08:02:19;;;;;;;8.50;5.43;;;5.30;99.90;;;;;;5091859;28;20189;-65
2024/01/25 08:04:48;;;;;;;8.80;5.03;;;5.10;99.90;;;;;;5091864;28;20200;-69
2024/01/25 08:07:17;;;;;;;8.23;5.33;;;5.00;99.90;;;;;;5091366;28;20224;-64
2024/01/25 08:09:47;;;;;;;8.40;4.70;;;5.00;99.90;;;;;;5091907;28;20204;-64
2024/01/25 08:12:15;;;;;;;4.30;3.60;;;5.10;99.90;;;;;;5091749;28;20686;-61
2024/01/25 08:14:44;;;;;;;6.13;4.00;;;5.20;99.90;;;;;;5091716;28;20310;-61
2024/01/25 08:17:12;;;;;;;4.13;3.03;;;5.20;99.90;;;;;;5091883;28;20192;-65
2024/01/25 08:19:40;;;;;;;3.33;3.03;;;5.10;99.90;;;;;;5091688;28;20219;-61
2024/01/25 08:22:09;;;;;;;4.27;2.83;;;5.10;99.90;;;;;;5091449;28;20570;-65
2024/01/25 08:24:39;;;;;;;3.73;3.33;;;5.40;99.90;;;;;;5091598;28;20697;-63
2024/01/25 08:27:09;;;;;;;3.93;3.63;;;5.30;99.90;;;;;;5084038;28;20204;-62
2024/01/25 08:31:55;;;;;;;5.33;3.90;;;6.10;99.90;;;;;;5124918;27;20806;-65
2024/01/25 08:34:24;;;;;;;4.10;3.40;;;6.60;99.90;;;;;;5126950;27;20222;-65
2024/01/25 08:36:53;;;;;;;6.13;3.67;;;6.20;99.90;;;;;;5127199;28;20299;-65
2024/01/25 08:39:22;;;;;;;3.50;3.03;;;6.10;99.90;;;;;;5127751;28;20195;-64
2024/01/25 08:41:50;;;;;;;4.80;3.43;;;6.00;99.90;;;;;;5126821;28;20203;-66
2024/01/25 08:44:18;;;;;;;7.10;5.03;;;5.90;99.90;;;;;;5127288;28;20269;-65
2024/01/25 08:46:46;;;;;;;7.30;3.67;;;5.90;99.90;;;;;;5127205;27;20981;-65
2024/01/25 08:49:16;;;;;;;2.60;2.40;;;5.90;99.90;;;;;;5126315;27;20190;-64
2024/01/25 08:51:45;;;;;;;2.80;2.60;;;5.60;99.90;;;;;;5126821;28;20223;-65
2024/01/25 08:54:13;;;;;;;3.77;3.43;;;5.70;99.90;;;;;;5126897;27;20604;-65
2024/01/25 08:56:41;;;;;;;3.67;3.20;;;5.90;99.90;;;;;;5125730;27;20243;-65
2024/01/25 08:59:10;;;;;;;4.00;3.53;;;5.90;99.90;;;;;;5127035;27;20305;-65
2024/01/25 09:01:38;;;;;;;5.37;3.73;;;5.90;99.90;;;;;;5126568;28;20200;-65
2024/01/25 09:04:07;;;;;;;4.77;3.80;;;6.10;99.90;;;;;;5126576;28;20183;-64
2024/01/25 09:06:37;;;;;;;3.80;3.40;;;6.00;99.90;;;;;;5126625;28;20218;-64
2024/01/25 09:09:06;;;;;;;5.67;4.77;;;6.10;99.90;;;;;;5126215;28;20752;-64
2024/01/25 09:11:34;;;;;;;7.37;4.87;;;6.10;99.90;;;;;;5126715;27;20231;-64
2024/01/25 09:14:02;;;;;;;4.33;3.93;;;6.10;99.90;;;;;;5126542;28;20196;-67
2024/01/25 09:16:31;;;;;;;4.70;4.27;;;6.10;99.90;;;;;;5126514;28;20203;-65
2024/01/25 09:18:59;;;;;;;4.47;3.73;;;6.00;99.90;;;;;;5126516;28;20200;-63
2024/01/25 09:21:28;;;;;;;6.30;4.30;;;6.00;99.90;;;;;;5125323;27;20193;-66
2024/01/25 09:23:57;;;;;;;8.47;5.03;;;5.80;99.90;;;;;;5125722;28;20210;-65
2024/01/25 09:26:26;;;;;;;14.63;7.33;;;6.00;99.90;;;;;;5126174;28;20244;-65
2024/01/25 09:28:54;;;;;;;13.17;6.60;;;6.10;99.90;;;;;;5126329;27;20244;-66
2024/01/25 09:31:22;;;;;;;15.33;7.33;;;6.20;99.90;;;;;;5125031;28;20712;-65
2024/01/25 09:33:51;;;;;;;10.70;5.80;;;6.10;99.90;;;;;;5126041;27;20539;-66
2024/01/25 09:36:19;;;;;;;7.93;5.37;;;6.10;99.90;;;;;;5126289;27;20233;-65
2024/01/25 09:38:48;;;;;;;7.80;5.10;;;6.10;99.90;;;;;;5125843;27;20206;-65
2024/01/25 09:41:20;;;;;;;7.53;4.37;;;6.20;99.90;;;;;;5123630;28;20241;-65
2024/01/25 09:43:48;;;;;;;10.83;6.10;;;6.20;99.90;;;;;;5112136;28;20211;-66
2024/01/25 09:46:17;;;;;;;14.63;7.87;;;6.10;99.90;;;;;;5112362;28;20245;-65
2024/01/25 09:48:47;;;;;;;11.13;7.00;;;6.20;99.90;;;;;;5112390;28;20200;-64
2024/01/25 09:51:16;;;;;;;13.30;6.00;;;6.40;99.90;;;;;;5112287;28;20227;-64
2024/01/25 09:53:52;;;;;;;6.90;4.63;;;6.30;99.90;;;;;;5111008;28;20233;-64
2024/01/25 09:56:25;;;;;;;6.50;4.30;;;6.30;99.90;;;;;;5112397;28;20195;-65
2024/01/25 09:58:54;;;;;;;5.00;3.70;;;6.40;99.90;;;;;;5112348;28;20198;-64
2024/01/25 10:01:22;;;;;;;4.83;2.77;;;6.20;99.90;;;;;;5111940;28;20205;-64
2024/01/25 10:03:50;;;;;;;6.70;6.07;;;5.90;99.90;;;;;;5112291;28;20193;-64
2024/01/25 10:06:20;;;;;;;5.07;3.67;;;6.00;99.90;;;;;;5112179;28;20567;-64
2024/01/25 10:08:48;;;;;;;5.50;3.43;;;6.00;99.90;;;;;;5111705;28;20203;-65
2024/01/25 10:11:17;;;;;;;3.93;3.23;;;6.10;99.90;;;;;;5111991;28;20221;-65
2024/01/25 10:13:50;;;;;;;3.70;2.20;;;5.90;99.90;;;;;;5111761;28;20224;-66
2024/01/25 10:16:19;;;;;;;3.80;3.27;;;5.70;99.90;;;;;;5111479;28;20192;-65
2024/01/25 10:18:48;;;;;;;4.23;3.67;;;5.80;99.90;;;;;;5110103;28;20280;-65
2024/01/25 10:21:17;;;;;;;4.03;3.63;;;5.80;99.90;;;;;;5111031;28;20224;-62
2024/01/25 10:23:47;;;;;;;4.63;3.40;;;5.90;99.90;;;;;;5111073;28;20196;-65
2024/01/25 10:26:17;;;;;;;6.40;4.30;;;6.00;99.90;;;;;;5111186;28;20672;-63
2024/01/25 10:28:53;;;;;;;7.03;4.03;;;6.20;99.90;;;;;;5111026;28;20202;-63
2024/01/25 10:31:26;;;;;;;4.90;3.10;;;6.20;99.90;;;;;;5110582;28;20337;-65
2024/01/25 10:33:55;;;;;;;8.23;3.80;;;6.30;99.90;;;;;;5110830;28;20571;-63
2024/01/25 10:36:24;;;;;;;2.87;2.67;;;6.50;99.90;;;;;;5110383;28;20202;-64
2024/01/25 10:38:55;;;;;;;7.90;5.20;;;6.30;99.90;;;;;;5110834;28;20566;-64
2024/01/25 10:41:26;;;;;;;7.90;4.77;;;6.20;99.90;;;;;;5110892;28;20654;-63
2024/01/25 10:43:57;;;;;;;3.83;3.27;;;6.40;99.90;;;;;;5110362;28;20266;-64
2024/01/25 10:46:28;;;;;;;3.00;2.50;;;6.40;99.90;;;;;;5110804;28;20249;-64
2024/01/25 10:48:58;;;;;;;3.60;2.70;;;6.10;99.90;;;;;;5110465;28;20207;-63
2024/01/25 10:51:28;;;;;;;4.23;2.90;;;6.00;99.90;;;;;;5110380;28;20217;-64
2024/01/25 10:53:59;;;;;;;3.13;2.70;;;6.00;99.90;;;;;;5026229;28;20202;-64
2024/01/25 10:56:27;;;;;;;2.70;2.50;;;6.00;99.90;;;;;;5027512;28;20678;-64
2024/01/25 10:58:57;;;;;;;3.03;2.60;;;6.00;99.90;;;;;;5027141;28;20225;-64
2024/01/25 11:01:25;;;;;;;3.17;2.50;;;6.00;99.90;;;;;;5027282;28;20260;-64
2024/01/25 11:03:54;;;;;;;2.70;2.40;;;5.90;99.90;;;;;;5027476;28;20203;-63
2024/01/25 11:06:23;;;;;;;2.97;1.97;;;6.00;99.90;;;;;;5027254;28;20242;-63
2024/01/25 11:08:51;;;;;;;4.00;3.67;;;6.00;99.90;;;;;;5027111;28;20211;-63
2024/01/25 11:11:21;;;;;;;3.43;2.90;;;6.10;99.90;;;;;;5039746;28;20234;-63
2024/01/25 11:13:51;;;;;;;3.83;3.30;;;6.00;99.90;;;;;;5109980;28;20211;-65
2024/01/25 11:16:31;;;;;;;3.87;2.60;;;6.00;99.90;;;;;;5110598;28;20196;-65
2024/01/25 11:19:05;;;;;;;3.27;2.97;;;6.10;99.90;;;;;;5110067;28;20196;-63
2024/01/25 11:21:41;;;;;;;2.60;2.20;;;6.20;99.90;;;;;;5110095;28;20219;-65
2024/01/25 11:24:14;;;;;;;2.73;2.53;;;6.00;99.90;;;;;;5110113;28;20201;-66
2024/01/25 11:26:45;;;;;;;3.40;3.10;;;5.90;99.90;;;;;;5110074;28;20192;-66
2024/01/25 11:29:16;;;;;;;3.30;2.53;;;6.10;99.90;;;;;;5109345;28;20193;-67
2024/01/25 11:31:46;;;;;;;2.70;2.50;;;6.00;99.90;;;;;;5110644;28;20236;-66
2024/01/25 11:34:16;;;;;;;4.40;3.33;;;6.00;99.90;;;;;;5110445;28;20195;-65
2024/01/25 11:36:45;;;;;;;2.93;2.73;;;5.90;99.90;;;;;;5109669;28;20199;-65
2024/01/25 11:39:17;;;;;;;2.83;2.60;;;5.80;99.90;;;;;;5046413;28;20209;-66
2024/01/25 11:41:47;;;;;;;4.00;2.40;;;6.00;99.90;;;;;;5046600;28;20214;-64
2024/01/25 11:44:15;;;;;;;2.40;2.00;;;6.00;99.90;;;;;;5046690;28;20218;-64
2024/01/25 11:46:44;;;;;;;3.13;2.90;;;6.20;99.90;;;;;;5046512;28;20408;-65
2024/01/25 11:49:14;;;;;;;3.67;2.60;;;6.00;99.90;;;;;;5046852;28;20226;-64
2024/01/25 11:51:42;;;;;;;2.70;2.50;;;6.30;99.90;;;;;;5046393;28;20227;-63
2024/01/25 11:54:11;;;;;;;4.10;3.20;;;6.20;99.90;;;;;;5046229;28;20208;-64
2024/01/25 11:56:41;;;;;;;5.33;2.93;;;6.50;99.90;;;;;;5056486;28;20689;-63
2024/01/25 11:59:10;;;;;;;4.93;2.90;;;6.50;99.90;;;;;;5109317;28;20197;-64
2024/01/25 12:01:40;;;;;;;5.37;4.00;;;6.40;99.90;;;;;;5109156;28;20679;-64
2024/01/25 12:04:09;;;;;;;3.10;2.83;;;6.40;99.90;;;;;;5109163;28;20215;-64
2024/01/25 12:06:39;;;;;;;2.60;2.40;;;6.40;99.90;;;;;;5108911;28;20664;-65
2024/01/25 12:09:09;;;;;;;5.70;4.13;;;6.20;99.90;;;;;;5108905;28;20225;-62
2024/01/25 12:11:38;;;;;;;3.60;3.00;;;6.00;99.90;;;;;;5109083;28;20651;-65
2024/01/25 12:14:08;;;;;;;2.50;2.30;;;5.70;99.90;;;;;;5109147;28;20185;-63
2024/01/25 12:16:36;;;;;;;2.27;1.93;;;5.50;99.90;;;;;;5109112;28;20207;-64
2024/01/25 12:19:06;;;;;;;4.40;2.90;;;5.30;99.90;;;;;;5108906;28;20206;-64
2024/01/25 12:21:35;;;;;;;2.33;2.13;;;5.30;99.90;;;;;;5108963;28;20709;-64
2024/01/25 12:24:06;;;;;;;3.00;2.50;;;5.20;99.90;;;;;;5107315;28;20584;-64
2024/01/25 12:26:38;;;;;;;2.30;2.20;;;5.20;99.90;;;;;;5108715;28;20745;-64
2024/01/25 12:29:08;;;;;;;4.33;3.50;;;5.30;99.90;;;;;;5108853;28;20249;-64
2024/01/25 12:31:36;;;;;;;2.97;2.13;;;5.20;99.90;;;;;;5108528;28;20235;-65
2024/01/25 12:34:13;;;;;;;2.80;2.30;;;5.20;99.90;;;;;;5109026;28;20825;-65
2024/01/25 12:36:42;;;;;;;3.97;2.80;;;5.20;99.90;;;;;;5109140;28;20217;-64
2024/01/25 12:39:14;;;;;;;9.90;6.43;;;5.10;99.90;;;;;;5109071;28;20275;-65
2024/01/25 12:41:44;;;;;;;3.80;2.90;;;5.10;99.90;;;;;;5109121;28;21043;-64
2024/01/25 12:44:12;;;;;;;3.90;3.23;;;5.30;99.90;;;;;;5109121;28;20213;-65
2024/01/25 12:46:41;;;;;;;3.20;2.60;;;5.30;99.90;;;;;;5108830;28;20203;-64
2024/01/25 12:49:09;;;;;;;3.63;3.33;;;5.40;99.90;;;;;;5109136;28;20528;-65
2024/01/25 12:51:37;;;;;;;2.90;2.70;;;5.40;99.90;;;;;;5109136;28;20207;-64
2024/01/25 12:54:06;;;;;;;2.90;2.60;;;5.30;99.90;;;;;;5108789;28;20219;-65
2024/01/25 12:56:36;;;;;;;4.20;3.80;;;5.30;99.90;;;;;;5108971;28;20232;-64
2024/01/25 12:59:05;;;;;;;4.63;4.17;;;5.10;99.90;;;;;;5108671;28;20204;-65
2024/01/25 13:01:33;;;;;;;2.60;2.40;;;4.70;99.90;;;;;;5108670;28;20184;-64
2024/01/25 13:04:02;;;;;;;3.20;2.90;;;4.70;99.90;;;;;;5108979;28;20196;-64